Time;durP1;ratioP1;P1;durP2;ratioP2;P2;SDS_P1;SDS_P2;PMS_P1;PMS_P2;Temp;Humidity;BMP_temperature;BMP_pressure;BME280_temperature;BME280_humidity;BME280_pressure;Samples;Min_cycle;Max_cycle;Signal;HPM_P1;HPM_P2
2024/01/22 00:01:59;;;;;;;2.17;0.87;;;;;;;17.68;46.41;100585.97;10416522;28;20276;-55
2024/01/22 00:06:59;;;;;;;1.90;1.13;;;;;;;17.69;46.05;100563.47;10416355;28;20754;-53
2024/01/22 00:11:59;;;;;;;1.92;0.93;;;;;;;17.68;47.04;100562.63;10441870;28;20492;-54
2024/01/22 00:17:00;;;;;;;3.50;1.27;;;;;;;17.66;46.26;100538.00;10457123;28;20078;-54
2024/01/22 00:22:00;;;;;;;3.73;1.23;;;;;;;17.70;46.04;100538.22;10456144;28;20360;-53
2024/01/22 00:27:00;;;;;;;1.57;1.00;;;;;;;17.69;46.90;100534.75;10456834;28;20271;-56
2024/01/22 00:32:01;;;;;;;2.63;1.13;;;;;;;17.70;46.17;100517.56;10445275;28;20612;-53
2024/01/22 00:37:01;;;;;;;2.92;1.42;;;;;;;17.71;46.03;100515.69;10415260;28;20290;-54
2024/01/22 00:42:02;;;;;;;4.30;1.40;;;;;;;17.73;46.23;100492.84;10415501;28;20037;-55
2024/01/22 00:47:02;;;;;;;1.67;1.15;;;;;;;17.68;46.07;100490.22;10414873;28;20069;-55
2024/01/22 00:52:03;;;;;;;2.22;0.90;;;;;;;17.66;47.51;100478.22;10414927;28;20021;-55
2024/01/22 00:57:03;;;;;;;1.30;0.80;;;;;;;17.64;46.30;100477.69;10414508;28;20369;-54
2024/01/22 01:02:04;;;;;;;1.92;0.90;;;;;;;17.65;47.44;100450.59;10414463;28;20436;-56
2024/01/22 01:07:04;;;;;;;3.45;1.20;;;;;;;17.64;46.30;100449.03;10414254;28;20163;-55
2024/01/22 01:12:05;;;;;;;2.60;0.90;;;;;;;17.66;46.78;100456.75;10439774;28;20048;-54
2024/01/22 01:17:05;;;;;;;1.50;0.67;;;;;;;17.66;47.06;100456.75;10454966;28;20033;-55
2024/01/22 01:22:05;;;;;;;2.35;1.00;;;;;;;17.64;47.21;100489.25;10455130;28;20341;-54
2024/01/22 01:27:06;;;;;;;4.47;1.35;;;;;;;17.69;46.84;100494.53;10454566;28;20102;-56
2024/01/22 01:32:06;;;;;;;1.97;0.83;;;;;;;17.64;47.22;100480.38;10440741;28;20040;-56
2024/01/22 01:37:07;;;;;;;1.67;0.93;;;;;;;17.64;46.22;100483.88;10412882;28;20296;-53
2024/01/22 01:42:07;;;;;;;2.77;1.20;;;;;;;17.65;46.93;100472.06;10411968;28;20091;-56
2024/01/22 01:47:07;;;;;;;1.73;1.20;;;;;;;17.64;46.87;100453.56;10412969;28;20743;-56
2024/01/22 01:52:11;;;;;;;2.10;1.10;;;;;;;17.60;45.92;100444.53;10411585;28;20315;-53
2024/01/22 01:57:11;;;;;;;1.33;0.90;;;;;;;17.61;47.52;100421.97;10412013;28;20381;-55
2024/01/22 02:02:12;;;;;;;1.55;0.77;;;;;;;17.65;46.37;100404.22;10412397;28;20025;-54
2024/01/22 02:07:13;;;;;;;1.45;0.80;;;;;;;17.65;45.63;100378.22;10410665;28;20021;-55
2024/01/22 02:12:15;;;;;;;1.70;1.20;;;;;;;17.64;46.10;100390.03;10439100;28;20056;-55
2024/01/22 02:17:16;;;;;;;1.50;0.80;;;;;;;17.66;46.10;100342.28;10451028;28;20643;-54
2024/01/22 02:22:16;;;;;;;1.13;0.70;;;;;;;17.69;46.44;100320.25;10411123;28;20025;-55
2024/01/22 02:27:17;;;;;;;1.27;0.80;;;;;;;17.63;47.24;100313.34;10411197;28;20032;-55
2024/01/22 02:32:17;;;;;;;1.23;0.70;;;;;;;17.61;46.89;100291.41;10419467;28;20025;-54
2024/01/22 02:37:18;;;;;;;1.60;0.80;;;;;;;17.62;46.39;100284.94;10409049;28;20167;-56
2024/01/22 02:42:18;;;;;;;2.20;0.80;;;;;;;17.61;45.94;100275.31;10410723;28;20341;-52
2024/01/22 02:47:19;;;;;;;1.30;0.95;;;;;;;17.60;46.07;100263.03;10409156;28;20021;-56
2024/01/22 02:52:19;;;;;;;2.53;0.60;;;;;;;17.62;46.18;100258.16;10410609;28;20037;-55
2024/01/22 02:57:19;;;;;;;1.40;0.80;;;;;;;17.64;46.16;100233.72;10410102;28;20288;-55
2024/01/22 03:02:20;;;;;;;1.08;0.60;;;;;;;17.74;48.29;100204.81;10410201;28;20342;-56
2024/01/22 03:07:20;;;;;;;1.50;0.63;;;;;;;17.81;47.12;100197.16;10409534;28;20353;-55
2024/01/22 03:12:20;;;;;;;2.17;1.00;;;;;;;17.83;48.03;100207.59;10437996;28;20291;-55
2024/01/22 03:17:21;;;;;;;1.10;0.70;;;;;;;17.82;47.52;100187.25;10450211;28;20283;-52
2024/01/22 03:22:21;;;;;;;1.70;0.53;;;;;;;17.81;47.75;100180.28;10449409;28;20107;-52
2024/01/22 03:27:21;;;;;;;1.53;0.80;;;;;;;17.84;47.96;100163.59;10448711;28;20358;-52
2024/01/22 03:32:22;;;;;;;1.13;0.60;;;;;;;17.78;48.71;100168.28;10434794;28;20360;-52
2024/01/22 03:37:22;;;;;;;1.80;0.60;;;;;;;17.75;47.48;100155.47;10408956;28;20330;-53
2024/01/22 03:42:22;;;;;;;1.50;0.68;;;;;;;17.76;48.01;100164.31;10407089;28;20740;-55
2024/01/22 03:47:23;;;;;;;1.77;1.00;;;;;;;17.76;48.77;100137.50;10408873;28;20400;-55
2024/01/22 03:52:23;;;;;;;1.33;0.60;;;;;;;17.73;48.49;100151.50;10408303;28;20280;-55
2024/01/22 03:57:23;;;;;;;1.30;0.70;;;;;;;17.73;48.44;100140.78;10408469;28;20029;-54
2024/01/22 04:02:24;;;;;;;0.93;0.60;;;;;;;17.69;47.59;100151.31;10406898;28;20280;-54
2024/01/22 04:07:24;;;;;;;1.00;0.60;;;;;;;17.67;48.81;100131.25;10408102;28;20026;-56
2024/01/22 04:12:25;;;;;;;1.20;0.70;;;;;;;17.66;48.88;100125.09;10436478;28;20758;-54
2024/01/22 04:17:25;;;;;;;1.27;0.67;;;;;;;17.63;49.29;100114.97;10449206;28;20017;-56
2024/01/22 04:22:25;;;;;;;2.50;1.20;;;;;;;17.66;49.22;100110.91;10447971;28;20329;-55
2024/01/22 04:27:25;;;;;;;1.67;1.00;;;;;;;17.68;48.99;100116.75;10408089;28;20276;-56
2024/01/22 04:32:26;;;;;;;1.00;0.90;;;;;;;17.81;48.83;100097.16;10423154;28;20037;-55
2024/01/22 04:37:26;;;;;;;1.67;1.10;;;;;;;17.85;49.28;100092.75;10423685;28;20284;-56
2024/01/22 04:42:26;;;;;;;3.80;1.42;;;;;;;17.82;49.02;100083.44;10423130;28;20268;-57
2024/01/22 04:47:27;;;;;;;2.67;0.80;;;;;;;17.80;50.59;100098.25;10427542;28;20021;-55
2024/01/22 04:52:27;;;;;;;1.27;1.00;;;;;;;17.79;50.34;100096.69;10430376;28;20673;-54
2024/01/22 04:57:27;;;;;;;2.73;1.10;;;;;;;17.71;50.40;100074.06;10430565;28;20284;-55
2024/01/22 05:02:28;;;;;;;2.47;0.80;;;;;;;17.66;50.45;100074.16;10432264;28;20759;-57
2024/01/22 05:07:28;;;;;;;2.22;0.95;;;;;;;17.61;50.95;100066.22;10416928;28;20264;-56
2024/01/22 05:12:28;;;;;;;1.77;1.13;;;;;;;17.54;50.52;100073.91;10443331;28;20055;-56
2024/01/22 05:17:29;;;;;;;2.17;0.57;;;;;;;17.52;50.13;100044.72;10454270;28;20742;-56
2024/01/22 05:22:29;;;;;;;0.90;0.60;;;;;;;17.54;49.89;100044.44;10455000;28;20282;-55
2024/01/22 05:27:30;;;;;;;1.65;1.10;;;;;;;17.52;50.04;100052.78;10454779;28;20650;-56
2024/01/22 05:32:32;;;;;;;2.03;0.90;;;;;;;17.54;49.69;100052.47;10437037;28;20033;-54
2024/01/22 05:37:32;;;;;;;0.75;0.60;;;;;;;17.53;50.56;100058.94;10413276;28;20037;-54
2024/01/22 05:42:32;;;;;;;2.25;1.15;;;;;;;17.51;50.40;100085.22;10412950;28;20497;-56
2024/01/22 05:47:33;;;;;;;1.77;0.95;;;;;;;17.51;50.37;100080.66;10413028;28;20128;-54
2024/01/22 05:52:33;;;;;;;1.17;0.60;;;;;;;17.59;50.70;100081.03;10411314;28;20033;-55
2024/01/22 05:57:33;;;;;;;2.20;0.70;;;;;;;17.56;49.69;100106.56;10424078;28;20294;-55
2024/01/22 06:02:34;;;;;;;3.50;0.68;;;;;;;17.60;50.89;100099.50;10444041;28;20032;-54
2024/01/22 06:07:35;;;;;;;4.73;1.03;;;;;;;17.68;50.85;100095.31;10421117;28;20022;-55
2024/01/22 06:12:36;;;;;;;8.38;1.00;;;;;;;17.76;50.75;100087.34;10441731;28;20682;-55
2024/01/22 06:17:36;;;;;;;4.93;0.90;;;;;;;17.76;51.23;100098.09;10452675;28;20025;-56
2024/01/22 06:22:37;;;;;;;4.30;1.20;;;;;;;17.66;50.58;100106.34;10450956;28;20059;-53
2024/01/22 06:27:37;;;;;;;9.70;1.45;;;;;;;17.62;51.25;100123.31;10452460;28;20025;-55
2024/01/22 06:32:38;;;;;;;7.05;1.40;;;;;;;17.56;51.68;100119.97;10433133;28;20029;-54
2024/01/22 06:37:38;;;;;;;6.93;1.37;;;;;;;17.51;52.06;100117.38;10410938;28;20052;-54
2024/01/22 06:42:38;;;;;;;9.83;1.13;;;;;;;17.45;52.58;100115.94;10410455;28;20276;-54
2024/01/22 06:47:40;;;;;;;13.02;1.95;;;;;;;17.40;52.27;100126.75;10409894;28;20339;-52
2024/01/22 06:52:40;;;;;;;18.08;2.30;;;;;;;17.43;53.31;100131.53;10426395;28;20031;-49
2024/01/22 06:57:41;;;;;;;22.13;3.73;;;;;;;17.46;52.41;100123.66;10425666;28;20103;-51
2024/01/22 07:02:43;;;;;;;20.75;3.38;;;;;;;17.41;53.19;100123.78;10409406;28;20755;-50
2024/01/22 07:07:43;;;;;;;16.92;3.75;;;;;;;17.34;53.24;100120.72;10429729;28;20031;-51
2024/01/22 07:12:44;;;;;;;17.73;2.10;;;;;;;17.32;54.04;100132.84;10442721;28;20052;-49
2024/01/22 07:17:44;;;;;;;14.20;2.65;;;;;;;17.38;53.61;100126.25;10448210;28;20299;-52
2024/01/22 07:22:45;;;;;;;18.20;3.97;;;;;;;17.33;54.24;100135.22;10426004;28;20044;-49
2024/01/22 07:27:46;;;;;;;20.92;3.15;;;;;;;17.32;53.53;100136.31;10406661;28;20507;-51
2024/01/22 07:32:47;;;;;;;10.15;2.42;;;;;;;17.27;52.68;100133.72;10410712;28;20117;-53
2024/01/22 07:37:48;;;;;;;10.45;2.97;;;;;;;17.24;53.49;100137.00;10401912;28;20144;-52
2024/01/22 07:42:48;;;;;;;57.97;3.80;;;;;;;17.28;53.38;100146.03;10418731;28;20592;-50
2024/01/22 07:47:49;;;;;;;12.93;2.42;;;;;;;17.28;53.43;100139.88;10407915;28;20283;-53
2024/01/22 07:52:49;;;;;;;13.55;2.30;;;;;;;17.31;52.51;100144.66;10405440;28;20028;-52
2024/01/22 07:57:49;;;;;;;20.17;3.53;;;;;;;17.26;53.14;100164.28;10418344;28;20774;-53
2024/01/22 08:02:50;;;;;;;6.88;2.03;;;;;;;17.23;54.17;100159.53;10405534;28;20645;-52
2024/01/22 08:07:51;;;;;;;18.77;2.87;;;;;;;17.21;53.90;100159.03;10406065;28;20036;-54
2024/01/22 08:12:51;;;;;;;12.13;3.30;;;;;;;17.21;53.27;100151.81;10416792;28;20300;-47
2024/01/22 08:17:51;;;;;;;18.90;2.97;;;;;;;17.21;53.15;100140.28;10406713;28;20302;-48
2024/01/22 08:22:52;;;;;;;13.47;3.30;;;;;;;17.20;53.09;100158.25;10413042;28;20275;-49
2024/01/22 08:27:53;;;;;;;16.27;2.87;;;;;;;17.21;52.97;100161.72;10450437;28;20368;-46
2024/01/22 08:32:53;;;;;;;8.25;2.22;;;;;;;17.20;52.01;100160.94;10428901;28;20275;-47
2024/01/22 08:37:54;;;;;;;11.90;3.05;;;;;;;17.22;52.60;100164.09;10414468;28;20022;-48
2024/01/22 08:42:55;;;;;;;7.43;2.40;;;;;;;17.25;57.18;100174.22;10413765;28;20033;-47
2024/01/22 08:47:55;;;;;;;9.18;1.52;;;;;;;17.23;56.51;100191.69;10414626;28;20322;-48
2024/01/22 08:52:56;;;;;;;19.70;2.53;;;;;;;17.27;55.42;100184.63;10412507;28;20029;-49
2024/01/22 08:57:56;;;;;;;10.32;2.33;;;;;;;17.27;55.11;100202.59;10444206;28;20668;-47
2024/01/22 09:02:57;;;;;;;7.25;2.30;;;;;;;17.27;54.35;100202.59;10454665;28;20037;-50
2024/01/22 09:07:57;;;;;;;13.00;2.00;;;;;;;17.29;54.77;100195.84;10424255;28;20014;-47
2024/01/22 09:12:57;;;;;;;15.85;2.55;;;;;;;17.30;55.43;100202.00;10445254;28;20287;-47
2024/01/22 09:17:58;;;;;;;4.97;1.77;;;;;;;17.31;54.58;100187.53;10454354;28;20025;-47
2024/01/22 09:22:59;;;;;;;5.23;1.77;;;;;;;17.34;54.34;100185.03;10452890;28;20340;-48
2024/01/22 09:28:00;;;;;;;6.13;1.63;;;;;;;17.34;55.11;100227.09;10426615;28;20280;-48
2024/01/22 09:33:00;;;;;;;8.27;1.83;;;;;;;17.32;54.77;100259.56;10418126;28;20473;-45
2024/01/22 09:38:01;;;;;;;10.80;1.55;;;;;;;17.30;54.54;100252.91;10412767;28;20029;-47
2024/01/22 09:43:03;;;;;;;7.78;1.75;;;;;;;17.26;53.95;100260.75;10411211;28;20068;-45
2024/01/22 09:48:04;;;;;;;8.15;2.25;;;;;;;17.24;53.13;100271.75;10414263;28;20045;-48
2024/01/22 09:53:11;;;;;;;12.77;2.45;;;;;;;17.27;53.30;100285.66;10452872;28;20112;-46
2024/01/22 09:58:15;;;;;;;8.50;1.50;;;;;;;17.27;54.59;100297.16;10422720;28;20021;-46
2024/01/22 10:03:16;;;;;;;11.88;1.73;;;;;;;17.28;53.28;100327.44;10413199;28;20480;-47
2024/01/22 10:08:16;;;;;;;8.90;2.20;;;;;;;17.28;53.21;100332.78;10450651;28;20033;-48
2024/01/22 10:13:17;;;;;;;5.60;1.40;;;;;;;17.28;53.22;100317.50;10446929;28;20294;-48
2024/01/22 10:18:18;;;;;;;5.45;1.80;;;;;;;17.29;53.83;100315.66;10445063;28;20291;-47
2024/01/22 10:23:19;;;;;;;6.78;1.77;;;;;;;17.24;53.33;100308.47;10410249;28;20341;-48
2024/01/22 10:28:21;;;;;;;7.60;1.65;;;;;;;17.23;53.30;100320.28;10410626;28;20468;-49
2024/01/22 10:33:21;;;;;;;5.72;1.58;;;;;;;17.26;52.26;100333.09;10424085;28;20029;-48
2024/01/22 10:38:23;;;;;;;7.18;1.80;;;;;;;17.27;52.31;100358.78;10451523;28;20017;-50
2024/01/22 10:43:27;;;;;;;3.53;1.33;;;;;;;17.23;53.85;100360.47;10449054;28;20032;-47
2024/01/22 10:48:30;;;;;;;4.40;1.33;;;;;;;17.22;52.35;100383.78;10449562;28;20036;-47
2024/01/22 10:53:34;;;;;;;4.30;0.90;;;;;;;17.25;53.25;100393.91;10450542;28;20025;-47
2024/01/22 10:58:44;;;;;;;3.33;1.42;;;;;;;17.25;53.14;100396.59;10450619;28;20040;-46
2024/01/22 11:03:47;;;;;;;9.45;1.67;;;;;;;17.27;53.71;100396.31;10412170;28;20044;-49
2024/01/22 11:08:53;;;;;;;6.80;1.17;;;;;;;17.31;52.63;100410.72;10408986;28;20029;-47
2024/01/22 11:14:02;;;;;;;6.88;1.30;;;;;;;17.36;52.58;100424.03;10447615;28;20053;-46
2024/01/22 11:19:04;;;;;;;4.03;0.98;;;;;;;17.37;53.93;100430.97;10415671;28;20065;-47
2024/01/22 11:24:19;;;;;;;4.55;1.05;;;;;;;17.33;52.76;100411.22;10406520;28;20033;-49
2024/01/22 11:29:24;;;;;;;6.80;1.10;;;;;;;17.34;53.75;100420.84;10418455;28;20040;-47
2024/01/22 11:34:40;;;;;;;5.82;1.65;;;;;;;17.30;53.99;100430.56;10423472;28;20178;-47
2024/01/22 11:39:43;;;;;;;7.78;2.22;;;;;;;17.30;54.68;100435.94;10423541;28;20408;-46
2024/01/22 11:44:46;;;;;;;7.60;1.60;;;;;;;17.32;53.16;100435.63;10420006;28;20029;-47
2024/01/22 11:49:46;;;;;;;15.35;2.00;;;;;;;17.35;54.15;100435.84;10423991;28;20025;-48
2024/01/22 11:54:53;;;;;;;8.17;1.40;;;;;;;17.35;54.29;100445.75;10421851;28;20473;-47
2024/01/22 12:00:06;;;;;;;8.35;1.40;;;;;;;17.35;53.99;100454.59;10422200;28;20935;-47
2024/01/22 12:05:09;;;;;;;9.88;2.35;;;;;;;17.37;54.44;100471.16;10423178;28;20025;-48
2024/01/22 12:10:27;;;;;;;5.55;1.50;;;;;;;17.40;54.99;100473.25;10425721;28;20068;-50
2024/01/22 12:15:32;;;;;;;6.90;1.55;;;;;;;17.39;53.89;100487.75;10421903;28;20013;-47
2024/01/22 12:20:33;;;;;;;10.20;1.83;;;;;;;17.42;54.94;100489.88;10416978;28;20018;-50
2024/01/22 12:25:34;;;;;;;14.88;3.63;;;;;;;17.36;54.07;100480.31;10405450;28;20136;-47
2024/01/22 12:30:34;;;;;;;8.13;2.28;;;;;;;17.41;54.27;100492.84;10407933;28;20104;-48
2024/01/22 12:35:35;;;;;;;11.20;2.87;;;;;;;17.39;55.04;100506.50;10410281;28;20111;-50
2024/01/22 12:40:35;;;;;;;8.80;1.77;;;;;;;17.43;55.52;100504.84;10414073;28;20318;-51
2024/01/22 12:45:35;;;;;;;16.43;3.10;;;;;;;17.43;54.61;100539.69;10415103;28;20960;-46
2024/01/22 12:50:36;;;;;;;7.75;2.38;;;;;;;17.39;55.75;100527.16;10406217;28;20280;-47
2024/01/22 12:55:36;;;;;;;14.73;2.58;;;;;;;17.38;55.22;100545.13;10405476;28;20129;-48
2024/01/22 13:00:36;;;;;;;10.03;2.77;;;;;;;17.33;54.82;100539.84;10407441;28;20041;-48
2024/01/22 13:05:37;;;;;;;12.00;2.83;;;;;;;17.28;54.37;100531.06;10407921;28;20295;-46
2024/01/22 13:10:37;;;;;;;16.10;3.00;;;;;;;17.27;54.07;100532.97;10426744;28;20045;-48
2024/01/22 13:15:38;;;;;;;36.53;4.15;;;;;;;17.35;54.11;100547.59;10426014;28;20064;-51
2024/01/22 13:20:38;;;;;;;33.70;4.93;;;;;;;17.28;53.95;100563.22;10412421;28;20059;-48
2024/01/22 13:25:39;;;;;;;18.40;3.23;;;;;;;17.18;54.92;100572.22;10424687;28;20025;-49
2024/01/22 13:30:39;;;;;;;23.70;4.63;;;;;;;17.17;55.50;100584.84;10431640;28;20276;-49
2024/01/22 13:35:39;;;;;;;14.63;3.60;;;;;;;17.21;55.61;100577.00;10422739;28;20280;-48
2024/01/22 13:40:41;;;;;;;16.55;3.08;;;;;;;17.13;55.82;100578.44;10431715;28;20100;-49
2024/01/22 13:45:41;;;;;;;12.30;3.60;;;;;;;17.14;55.30;100577.34;10426141;28;20021;-48
2024/01/22 13:50:42;;;;;;;11.60;3.40;;;;;;;17.19;55.22;100579.19;10438965;28;20399;-46
2024/01/22 13:55:43;;;;;;;17.77;4.17;;;;;;;17.15;55.27;100596.91;10440662;28;20029;-49
2024/01/22 14:00:43;;;;;;;14.48;4.03;;;;;;;17.04;56.37;100595.44;10422429;28;20627;-48
2024/01/22 14:05:44;;;;;;;12.50;2.87;;;;;;;17.11;54.80;100594.00;10426156;28;20020;-46
2024/01/22 14:10:44;;;;;;;10.25;2.85;;;;;;;17.11;54.07;100599.38;10438941;28;20295;-48
2024/01/22 14:15:44;;;;;;;11.40;3.20;;;;;;;17.14;55.48;100606.81;10427625;28;20070;-53
2024/01/22 14:20:46;;;;;;;16.67;3.33;;;;;;;17.16;55.15;100631.44;10440727;28;20284;-50
2024/01/22 14:25:46;;;;;;;12.45;2.92;;;;;;;17.16;54.87;100619.94;10416140;28;20291;-53
2024/01/22 14:30:47;;;;;;;18.45;3.13;;;;;;;17.10;56.09;100632.59;10429394;28;20548;-52
2024/01/22 14:35:48;;;;;;;10.15;2.83;;;;;;;17.06;56.74;100622.75;10426662;28;20025;-51
2024/01/22 14:40:50;;;;;;;19.38;4.18;;;;;;;17.01;56.14;100637.00;10437716;28;20029;-51
2024/01/22 14:45:50;;;;;;;14.43;3.40;;;;;;;17.01;56.61;100636.19;10449500;28;20020;-53
2024/01/22 14:50:51;;;;;;;11.27;3.53;;;;;;;17.02;55.39;100646.63;10450737;28;20111;-53
2024/01/22 14:55:51;;;;;;;8.33;3.57;;;;;;;16.99;55.03;100646.41;10432639;28;20025;-54
2024/01/22 15:00:51;;;;;;;8.47;2.80;;;;;;;16.95;55.18;100646.19;10422253;28;20287;-54
2024/01/22 15:05:52;;;;;;;9.23;2.77;;;;;;;16.99;53.76;100652.56;10412638;28;20633;-50
2024/01/22 15:10:52;;;;;;;8.93;2.58;;;;;;;16.98;53.81;100650.19;10420478;28;20288;-52
2024/01/22 15:15:52;;;;;;;16.25;3.00;;;;;;;17.00;53.65;100662.19;10408864;28;20029;-48
2024/01/22 15:20:53;;;;;;;12.77;2.70;;;;;;;17.02;54.74;100661.91;10431492;28;20033;-47
2024/01/22 15:25:53;;;;;;;14.23;3.07;;;;;;;17.09;54.29;100673.09;10417277;28;20304;-45
2024/01/22 15:30:53;;;;;;;20.20;3.67;;;;;;;17.09;53.90;100691.84;10428293;28;20266;-48
2024/01/22 15:35:54;;;;;;;14.30;2.80;;;;;;;17.14;55.01;100705.94;10422117;28;20299;-47
2024/01/22 15:40:54;;;;;;;9.73;3.13;;;;;;;17.13;55.27;100707.03;10407003;28;20109;-48
2024/01/22 15:45:54;;;;;;;12.43;3.03;;;;;;;17.10;54.20;100701.47;10407365;28;20393;-48
2024/01/22 15:50:55;;;;;;;9.97;3.70;;;;;;;17.27;54.54;100725.09;10408667;28;20104;-48
2024/01/22 15:55:55;;;;;;;13.00;3.27;;;;;;;17.24;54.95;100723.78;10407735;28;20287;-48
2024/01/22 16:00:57;;;;;;;14.32;2.42;;;;;;;17.31;53.75;100734.19;10408196;28;20299;-49
2024/01/22 16:06:01;;;;;;;12.85;3.72;;;;;;;17.28;54.52;100740.09;10417326;28;20029;-52
2024/01/22 16:11:01;;;;;;;23.38;4.00;;;;;;;17.23;53.28;100749.78;10418575;28;20041;-48
2024/01/22 16:16:01;;;;;;;11.27;3.60;;;;;;;17.48;52.98;100764.78;10412626;28;20404;-52
2024/01/22 16:21:02;;;;;;;12.55;3.58;;;;;;;17.49;53.76;100752.19;10438423;28;20033;-53
2024/01/22 16:26:02;;;;;;;21.08;9.07;;;;;;;17.67;55.33;100764.03;10420994;28;20026;-50
2024/01/22 16:31:03;;;;;;;35.70;16.75;;;;;;;17.48;54.81;100780.88;10424615;28;20028;-55
2024/01/22 16:36:05;;;;;;;46.47;28.60;;;;;;;17.41;54.54;100796.50;10425855;28;20041;-54
2024/01/22 16:41:06;;;;;;;35.53;18.55;;;;;;;17.56;56.56;100800.09;10410632;28;20025;-53
2024/01/22 16:46:06;;;;;;;32.08;18.80;;;;;;;18.06;57.35;100817.44;10430576;28;20028;-54
2024/01/22 16:51:08;;;;;;;31.20;15.40;;;;;;;18.05;57.63;100824.69;10414266;28;20373;-52
2024/01/22 16:56:10;;;;;;;28.65;16.20;;;;;;;17.93;57.90;100832.38;10412374;28;20291;-51
2024/01/22 17:01:11;;;;;;;26.25;12.90;;;;;;;17.93;56.00;100831.59;10411366;28;20029;-50
2024/01/22 17:06:11;;;;;;;32.85;15.32;;;;;;;17.90;56.85;100861.66;10413423;28;20045;-53
2024/01/22 17:11:12;;;;;;;36.95;14.38;;;;;;;17.78;57.67;100865.56;10425048;28;20092;-53
2024/01/22 17:16:13;;;;;;;50.58;14.95;;;;;;;17.86;56.74;100869.47;10438811;28;20473;-51
2024/01/22 17:21:16;;;;;;;38.70;13.18;;;;;;;17.77;56.26;100863.16;10442352;28;20028;-49
2024/01/22 17:26:16;;;;;;;24.83;12.43;;;;;;;17.74;56.17;100853.78;10442069;28;20037;-51
2024/01/22 17:31:17;;;;;;;34.58;12.73;;;;;;;17.73;58.56;100864.81;10462113;28;20039;-52
2024/01/22 17:36:17;;;;;;;25.20;11.03;;;;;;;17.73;57.25;100868.28;10424445;28;20040;-49
2024/01/22 17:41:17;;;;;;;26.40;11.77;;;;;;;17.64;58.46;100877.19;10423228;28;20783;-50
2024/01/22 17:46:18;;;;;;;39.25;12.70;;;;;;;17.69;58.08;100879.88;10429437;28;20160;-51
2024/01/22 17:51:18;;;;;;;22.83;9.57;;;;;;;17.64;57.05;100895.97;10426966;28;20553;-52
2024/01/22 17:56:18;;;;;;;22.50;9.17;;;;;;;17.50;56.10;100899.31;10443333;28;20029;-51
2024/01/22 18:01:19;;;;;;;18.55;9.90;;;;;;;17.42;56.71;100908.00;10428197;28;20295;-52
2024/01/22 18:06:21;;;;;;;27.35;9.85;;;;;;;17.33;56.80;100919.63;10452454;28;20029;-51
2024/01/22 18:11:21;;;;;;;31.45;10.73;;;;;;;17.42;55.56;100931.34;10424544;28;20441;-49
2024/01/22 18:16:22;;;;;;;19.30;10.13;;;;;;;17.30;56.21;100925.53;10409424;28;20340;-49
2024/01/22 18:21:22;;;;;;;21.92;7.25;;;;;;;17.23;55.75;100940.06;10408715;28;20021;-49
2024/01/22 18:26:22;;;;;;;17.07;8.03;;;;;;;17.21;55.84;100969.00;10421928;28;20079;-49
2024/01/22 18:31:25;;;;;;;21.10;8.40;;;;;;;17.19;55.19;100971.19;10427900;28;20342;-49
2024/01/22 18:36:26;;;;;;;14.43;7.50;;;;;;;17.18;55.65;100974.94;10414109;28;20275;-53
2024/01/22 18:41:27;;;;;;;18.60;7.22;;;;;;;17.18;54.50;100977.63;10425814;28;20033;-49
2024/01/22 18:46:28;;;;;;;18.15;7.72;;;;;;;17.21;54.88;100977.06;10423882;28;20029;-54
2024/01/22 18:51:28;;;;;;;15.18;7.40;;;;;;;17.24;55.11;100997.94;10425506;28;20504;-50
2024/01/22 18:56:28;;;;;;;18.23;7.87;;;;;;;17.27;54.39;101009.16;10426228;28;20721;-52
2024/01/22 19:01:29;;;;;;;15.68;6.75;;;;;;;17.30;55.52;101014.00;10412993;28;20359;-51
2024/01/22 19:06:29;;;;;;;18.53;6.80;;;;;;;17.28;54.81;101014.25;10429373;28;20094;-51
2024/01/22 19:11:29;;;;;;;17.63;7.53;;;;;;;17.34;54.18;101018.50;10437008;28;20693;-49
2024/01/22 19:16:31;;;;;;;22.13;7.47;;;;;;;17.31;55.21;101037.03;10432103;28;20025;-52
2024/01/22 19:21:32;;;;;;;15.13;6.55;;;;;;;17.35;53.86;101028.13;10420027;28;20268;-51
2024/01/22 19:26:32;;;;;;;15.93;6.35;;;;;;;17.35;54.94;101046.09;10412624;28;20041;-48
2024/01/22 19:31:32;;;;;;;13.07;5.53;;;;;;;17.35;53.69;101054.94;10420605;28;20095;-48
2024/01/22 19:36:32;;;;;;;13.33;5.97;;;;;;;17.38;55.17;101048.22;10425870;28;20604;-49
2024/01/22 19:41:33;;;;;;;12.70;5.33;;;;;;;17.39;54.48;101053.28;10429791;28;20280;-51
2024/01/22 19:46:33;;;;;;;13.15;4.93;;;;;;;17.35;54.92;101062.97;10424569;28;20288;-52
2024/01/22 19:51:34;;;;;;;11.77;4.83;;;;;;;17.34;53.88;101076.66;10422827;28;20430;-48
2024/01/22 19:56:40;;;;;;;13.23;5.78;;;;;;;17.33;53.74;101083.09;10419494;28;20280;-49
2024/01/22 20:01:42;;;;;;;12.98;5.30;;;;;;;17.35;54.37;101087.09;10410435;28;20026;-50
2024/01/22 20:06:43;;;;;;;11.43;5.20;;;;;;;17.32;54.62;101097.59;10405671;28;20416;-51
2024/01/22 20:11:43;;;;;;;9.90;4.87;;;;;;;17.34;53.82;101080.16;10415968;28;20040;-50
2024/01/22 20:16:44;;;;;;;10.97;5.90;;;;;;;17.35;53.28;101080.94;10421639;28;20820;-52
2024/01/22 20:21:45;;;;;;;11.75;4.68;;;;;;;17.34;54.63;101087.38;10436745;28;20294;-51
2024/01/22 20:26:45;;;;;;;12.10;5.07;;;;;;;17.33;54.40;101091.94;10459337;28;20021;-49
2024/01/22 20:31:46;;;;;;;8.70;4.43;;;;;;;17.32;54.08;101087.66;10452541;28;20074;-51
2024/01/22 20:36:46;;;;;;;9.17;4.07;;;;;;;17.36;52.70;101090.59;10457290;28;20033;-49
2024/01/22 20:41:46;;;;;;;13.02;4.90;;;;;;;17.36;54.11;101083.34;10456865;28;20271;-49
2024/01/22 20:46:47;;;;;;;12.00;3.93;;;;;;;17.35;52.82;101078.25;10457050;28;20044;-51
2024/01/22 20:51:47;;;;;;;6.90;4.00;;;;;;;17.36;52.83;101086.03;10455155;28;20275;-48
2024/01/22 20:56:47;;;;;;;9.90;5.03;;;;;;;17.35;53.28;101097.03;10416103;28;20694;-49
2024/01/22 21:01:48;;;;;;;9.40;4.03;;;;;;;17.37;53.60;101106.38;10413721;28;20347;-49
2024/01/22 21:06:48;;;;;;;9.25;3.22;;;;;;;17.37;53.31;101109.06;10444919;28;20290;-51
2024/01/22 21:11:49;;;;;;;7.35;3.83;;;;;;;17.36;52.13;101107.47;10424297;28;20068;-50
2024/01/22 21:16:49;;;;;;;6.63;3.80;;;;;;;17.39;52.98;101147.13;10412408;28;20036;-50
2024/01/22 21:21:50;;;;;;;8.93;4.03;;;;;;;17.39;53.34;101149.00;10411636;28;20452;-51
2024/01/22 21:26:50;;;;;;;8.07;3.70;;;;;;;17.42;52.38;101143.09;10411657;28;20276;-52
2024/01/22 21:31:50;;;;;;;5.22;3.15;;;;;;;17.38;52.19;101160.78;10436149;28;20272;-48
2024/01/22 21:36:51;;;;;;;7.37;3.47;;;;;;;17.37;51.79;101146.59;10411490;28;20029;-48
2024/01/22 21:41:53;;;;;;;6.55;2.72;;;;;;;17.40;52.31;101172.84;10409751;28;20284;-50
2024/01/22 21:46:53;;;;;;;6.28;3.50;;;;;;;17.39;52.71;101165.88;10411483;28;20053;-49
2024/01/22 21:51:53;;;;;;;9.60;3.37;;;;;;;17.42;52.48;101164.53;10410790;28;20104;-51
2024/01/22 21:56:54;;;;;;;6.68;2.90;;;;;;;17.38;51.65;101163.47;10411299;28;20375;-53
2024/01/22 22:01:54;;;;;;;5.93;3.07;;;;;;;17.40;51.38;101164.00;10423698;28;20017;-52
2024/01/22 22:06:54;;;;;;;5.13;2.40;;;;;;;17.40;52.10;101169.34;10438914;28;20732;-51
2024/01/22 22:11:55;;;;;;;5.20;3.22;;;;;;;17.36;52.79;101171.00;10384916;28;1063580;-49
2024/01/22 22:16:56;;;;;;;6.27;3.17;;;;;;;17.37;52.10;101178.75;10412377;28;20480;-51
2024/01/22 22:21:56;;;;;;;5.88;2.35;;;;;;;17.37;53.14;101196.72;10411852;28;20268;-52
2024/01/22 22:26:56;;;;;;;8.00;3.37;;;;;;;17.34;51.23;101189.25;10412090;28;20029;-52
2024/01/22 22:31:57;;;;;;;7.83;3.47;;;;;;;17.34;51.96;101200.75;10436479;28;20573;-48
2024/01/22 22:36:57;;;;;;;5.83;2.97;;;;;;;17.35;51.76;101217.66;10410669;28;20288;-49
2024/01/22 22:41:57;;;;;;;5.33;2.97;;;;;;;17.33;52.41;101225.16;10409734;28;20343;-49
2024/01/22 22:46:58;;;;;;;6.10;2.83;;;;;;;17.35;52.82;101218.44;10410758;28;20280;-49
2024/01/22 22:51:58;;;;;;;5.38;2.58;;;;;;;17.34;52.64;101240.16;10411009;28;20280;-53
2024/01/22 22:56:58;;;;;;;4.97;2.33;;;;;;;17.35;52.38;101247.94;10410351;28;20076;-51